createdAt,value
2018-03-11T01:42:43.956Z,10.59
2018-03-11T01:42:45.487Z,10.66
2018-03-11T01:42:46.009Z,10.63
2018-03-11T01:42:46.605Z,10.65
2018-03-11T01:42:47.205Z,10.65
2018-03-11T01:42:47.810Z,10.65
2018-03-11T01:42:48.405Z,10.59
2018-03-11T01:43:42.433Z,10.60
2018-03-11T01:43:42.995Z,10.73
2018-03-11T01:43:43.594Z,10.66
2018-03-11T01:43:44.194Z,10.65
2018-03-11T01:43:44.793Z,10.62
2018-03-11T01:43:45.393Z,10.68
2018-03-11T01:43:45.992Z,10.60
2018-03-11T01:43:46.593Z,10.66
2018-03-11T01:44:40.077Z,10.62
2018-03-11T01:44:40.659Z,10.60
2018-03-11T01:44:41.246Z,10.65
2018-03-11T01:44:41.846Z,10.56
2018-03-11T01:44:42.446Z,10.70
2018-03-11T01:44:43.050Z,10.62
2018-03-11T01:44:43.646Z,10.65
2018-03-11T01:44:44.246Z,10.63
2018-03-11T01:45:38.753Z,10.65
2018-03-11T01:45:39.321Z,10.59
2018-03-11T01:45:39.921Z,10.68
2018-03-11T01:45:40.523Z,10.60
2018-03-11T01:45:41.121Z,10.70
2018-03-11T01:45:41.721Z,10.65
2018-03-11T01:45:42.321Z,10.60
2018-03-11T01:45:42.921Z,10.63
2018-03-11T01:46:37.430Z,10.68
2018-03-11T01:46:37.999Z,10.66
2018-03-11T01:46:38.599Z,10.73
2018-03-11T01:46:39.198Z,10.68
2018-03-11T01:46:39.798Z,10.63
2018-03-11T01:46:40.399Z,10.66
2018-03-11T01:46:40.999Z,10.63
2018-03-11T01:46:41.598Z,10.68
2018-03-11T01:47:35.169Z,10.63
2018-03-11T01:47:35.687Z,10.70
2018-03-11T01:47:36.286Z,10.68
2018-03-11T01:47:36.887Z,10.68
2018-03-11T01:47:37.486Z,10.65
2018-03-11T01:47:38.089Z,10.71
2018-03-11T01:47:38.692Z,10.73
2018-03-11T01:47:39.284Z,10.65
2018-03-11T01:48:33.761Z,10.76
2018-03-11T01:48:34.326Z,10.71
2018-03-11T01:48:34.927Z,10.74
2018-03-11T01:48:35.527Z,10.71
2018-03-11T01:48:36.126Z,10.66
2018-03-11T01:48:36.727Z,10.71
2018-03-11T01:48:37.329Z,10.76
2018-03-11T01:48:37.928Z,10.73
2018-03-11T01:49:32.436Z,10.74
2018-03-11T01:49:33.002Z,10.77
2018-03-11T01:49:33.602Z,10.76
2018-03-11T01:49:34.202Z,10.76
2018-03-11T01:49:34.802Z,10.71
2018-03-11T01:49:35.402Z,10.76
2018-03-11T01:49:36.001Z,10.70
2018-03-11T01:49:36.601Z,10.78
2018-03-11T01:50:31.109Z,10.78
2018-03-11T01:50:31.678Z,10.77
2018-03-11T01:50:32.281Z,10.71
2018-03-11T01:50:32.880Z,10.71
2018-03-11T01:50:33.478Z,10.71
2018-03-11T01:50:34.077Z,10.77
2018-03-11T01:50:34.679Z,10.78
2018-03-11T01:50:35.278Z,10.76
2018-03-11T01:51:29.783Z,10.76
2018-03-11T01:51:30.356Z,10.80
2018-03-11T01:51:30.955Z,10.81
2018-03-11T01:51:31.555Z,10.76
2018-03-11T01:51:32.154Z,10.81
2018-03-11T01:51:32.755Z,10.78
2018-03-11T01:51:33.354Z,10.71
2018-03-11T01:51:33.954Z,10.74
2018-03-11T01:52:29.998Z,10.81
2018-03-11T01:52:30.580Z,10.89
2018-03-11T01:52:31.168Z,10.86
2018-03-11T01:52:31.766Z,10.86
2018-03-11T01:52:32.367Z,10.88
2018-03-11T01:52:32.966Z,10.89
2018-03-11T01:53:27.036Z,10.91
2018-03-11T01:53:27.616Z,10.96
2018-03-11T01:53:28.204Z,10.91
2018-03-11T01:53:28.804Z,10.96
2018-03-11T01:53:29.404Z,10.89
2018-03-11T01:53:30.004Z,10.91
2018-03-11T01:53:30.603Z,10.92
2018-03-11T01:53:31.203Z,10.94
2018-03-11T01:54:24.688Z,10.92
2018-03-11T01:54:25.256Z,10.95
2018-03-11T01:54:25.858Z,10.86
2018-03-11T01:54:26.458Z,10.96
2018-03-11T01:54:27.061Z,10.98
2018-03-11T01:54:27.656Z,10.98
2018-03-11T01:54:28.256Z,10.89
2018-03-11T01:54:28.856Z,10.92
2018-03-11T01:55:22.340Z,10.92
2018-03-11T01:55:22.910Z,11.03
2018-03-11T01:55:23.512Z,10.88
2018-03-11T01:55:24.108Z,11.06
2018-03-11T01:55:24.714Z,10.96
2018-03-11T01:55:25.308Z,10.96
2018-03-11T01:55:25.907Z,10.99
2018-03-11T01:55:26.507Z,11.03
2018-03-11T01:56:19.993Z,11.06
2018-03-11T01:56:20.560Z,11.02
2018-03-11T01:56:21.161Z,11.02
2018-03-11T01:56:21.760Z,11.06
2018-03-11T01:56:22.361Z,11.03
2018-03-11T01:56:22.960Z,10.98
2018-03-11T01:56:23.560Z,11.02
2018-03-11T01:56:24.159Z,11.01
2018-03-11T01:57:18.665Z,11.06
2018-03-11T01:57:19.240Z,11.06
2018-03-11T01:57:19.842Z,11.03
2018-03-11T01:57:20.437Z,10.98
2018-03-11T01:57:21.041Z,10.96
2018-03-11T01:57:21.635Z,11.02
2018-03-11T01:57:22.234Z,11.02
2018-03-11T01:57:22.835Z,10.99
2018-03-11T01:58:17.341Z,11.09
2018-03-11T01:58:17.917Z,11.03
2018-03-11T01:58:18.511Z,11.02
2018-03-11T01:58:19.109Z,11.01
2018-03-11T01:58:19.711Z,11.02
2018-03-11T01:58:20.316Z,11.06
2018-03-11T01:58:20.910Z,11.01
2018-03-11T01:58:21.510Z,11.03
2018-03-11T01:59:14.996Z,11.02
2018-03-11T01:59:15.564Z,11.03
2018-03-11T01:59:16.163Z,11.06
2018-03-11T01:59:16.763Z,11.09
2018-03-11T01:59:17.363Z,11.07
2018-03-11T01:59:17.983Z,11.11
2018-03-11T01:59:18.562Z,11.07
2018-03-11T01:59:19.164Z,11.01
2018-03-11T02:00:12.645Z,11.07
2018-03-11T02:00:13.216Z,11.16
2018-03-11T02:00:13.819Z,11.16
2018-03-11T02:00:14.414Z,11.06
2018-03-11T02:00:15.018Z,11.11
2018-03-11T02:00:15.636Z,11.11
2018-03-11T02:00:16.238Z,11.10
2018-03-11T02:00:16.817Z,11.14
2018-03-11T02:01:11.326Z,11.11
2018-03-11T02:01:11.894Z,11.19
2018-03-11T02:01:12.489Z,11.19
2018-03-11T02:01:13.089Z,11.09
2018-03-11T02:01:13.689Z,11.09
2018-03-11T02:01:14.291Z,11.11
2018-03-11T02:01:14.890Z,11.11
2018-03-11T02:01:15.488Z,11.17
2018-03-11T02:02:10.040Z,11.19
2018-03-11T02:02:10.590Z,11.20
2018-03-11T02:02:11.166Z,11.20
2018-03-11T02:02:11.766Z,11.24
2018-03-11T02:02:12.367Z,11.20
2018-03-11T02:02:12.973Z,11.24
2018-03-11T02:02:13.570Z,11.21
2018-03-11T02:02:14.166Z,11.21
2018-03-11T02:03:08.671Z,11.13
2018-03-11T02:03:09.242Z,11.27
2018-03-11T02:03:09.841Z,11.27
2018-03-11T02:03:11.202Z,11.20
2018-03-11T02:03:11.722Z,11.25
2018-03-11T02:03:12.322Z,11.17
2018-03-11T02:03:12.923Z,11.28
2018-03-11T02:04:07.451Z,11.31
2018-03-11T02:04:08.022Z,11.25
2018-03-11T02:04:08.620Z,11.31
2018-03-11T02:04:09.220Z,11.29
2018-03-11T02:04:09.824Z,11.27
2018-03-11T02:04:10.419Z,11.27
2018-03-11T02:04:11.019Z,11.29
2018-03-11T02:04:11.619Z,11.28
2018-03-11T02:05:05.103Z,11.27
2018-03-11T02:05:05.677Z,11.27
2018-03-11T02:05:06.274Z,11.35
2018-03-11T02:05:06.876Z,11.29
2018-03-11T02:05:07.471Z,11.27
2018-03-11T02:05:08.072Z,11.25
2018-03-11T02:05:08.672Z,11.21
2018-03-11T02:05:09.271Z,11.24
2018-03-11T02:06:02.757Z,11.31
2018-03-11T02:06:03.327Z,11.31
2018-03-11T02:06:03.925Z,11.28
2018-03-11T02:06:04.523Z,11.25
2018-03-11T02:06:05.132Z,11.41
2018-03-11T02:06:05.724Z,11.29
2018-03-11T02:06:06.327Z,11.21
2018-03-11T02:06:06.923Z,11.25
2018-03-11T02:07:00.409Z,11.29
2018-03-11T02:07:00.977Z,11.32
2018-03-11T02:07:01.576Z,11.43
2018-03-11T02:07:02.189Z,11.32
2018-03-11T02:07:02.774Z,11.36
2018-03-11T02:07:03.374Z,11.38
2018-03-11T02:07:03.973Z,11.39
2018-03-11T02:07:04.575Z,11.43
2018-03-11T02:07:59.081Z,11.39
2018-03-11T02:07:59.685Z,11.38
2018-03-11T02:08:00.248Z,11.32
2018-03-11T02:08:00.849Z,11.36
2018-03-11T02:08:01.448Z,11.35
2018-03-11T02:08:02.052Z,11.28
2018-03-11T02:08:02.648Z,11.43
2018-03-11T02:08:03.247Z,11.28
2018-03-11T02:08:57.756Z,11.29
2018-03-11T02:08:58.327Z,11.31
2018-03-11T02:08:58.925Z,11.38
2018-03-11T02:08:59.525Z,11.43
2018-03-11T02:09:00.126Z,11.32
2018-03-11T02:09:00.726Z,11.38
2018-03-11T02:09:01.326Z,11.38
2018-03-11T02:09:01.949Z,11.34
2018-03-11T02:09:56.432Z,11.35
2018-03-11T02:09:57.004Z,11.35
2018-03-11T02:09:57.602Z,11.38
2018-03-11T02:09:58.203Z,11.36
2018-03-11T02:09:58.802Z,11.32
2018-03-11T02:09:59.401Z,11.38
2018-03-11T02:10:00.003Z,11.36
2018-03-11T02:10:00.612Z,11.39
2018-03-11T02:10:54.089Z,11.31
2018-03-11T02:10:54.658Z,11.31
2018-03-11T02:10:55.255Z,11.32
2018-03-11T02:10:55.854Z,11.32
2018-03-11T02:10:56.455Z,11.38
2018-03-11T02:10:57.054Z,11.28
2018-03-11T02:10:57.653Z,11.36
2018-03-11T02:10:58.254Z,11.39
2018-03-11T02:11:51.740Z,11.44
2018-03-11T02:11:52.308Z,11.38
2018-03-11T02:11:52.906Z,11.39
2018-03-11T02:11:53.506Z,11.32
2018-03-11T02:11:54.106Z,11.29
2018-03-11T02:11:54.705Z,11.36
2018-03-11T02:11:55.305Z,11.44
2018-03-11T02:11:55.904Z,11.31
2018-03-11T02:12:50.413Z,11.38
2018-03-11T02:12:50.987Z,11.41
2018-03-11T02:12:51.583Z,11.44
2018-03-11T02:12:52.181Z,11.39
2018-03-11T02:12:52.780Z,11.43
2018-03-11T02:12:53.381Z,11.43
2018-03-11T02:12:53.980Z,11.41
2018-03-11T02:12:54.592Z,11.47
2018-03-11T02:13:49.087Z,11.39
2018-03-11T02:13:49.659Z,11.41
2018-03-11T02:13:50.257Z,11.49
2018-03-11T02:13:50.856Z,11.39
2018-03-11T02:13:51.458Z,11.44
2018-03-11T02:13:52.057Z,11.38
2018-03-11T02:13:52.656Z,11.46
2018-03-11T02:13:53.259Z,11.46
2018-03-11T02:14:47.764Z,11.46
2018-03-11T02:14:48.339Z,11.41
2018-03-11T02:14:48.937Z,11.38
2018-03-11T02:14:49.532Z,11.44
2018-03-11T02:14:50.132Z,11.43
2018-03-11T02:14:50.731Z,11.41
2018-03-11T02:14:51.331Z,11.41
2018-03-11T02:14:51.931Z,11.38
2018-03-11T02:15:45.427Z,11.38
2018-03-11T02:15:45.986Z,11.38
2018-03-11T02:15:46.584Z,11.38
2018-03-11T02:15:47.189Z,11.43
2018-03-11T02:15:47.783Z,11.44
2018-03-11T02:15:48.385Z,11.46
2018-03-11T02:15:48.984Z,11.46
2018-03-11T02:15:49.586Z,11.36
2018-03-11T02:16:44.089Z,11.44
2018-03-11T02:16:44.664Z,11.50
2018-03-11T02:16:45.262Z,11.36
2018-03-11T02:16:45.859Z,11.44
2018-03-11T02:16:46.466Z,11.41
2018-03-11T02:16:47.059Z,11.39
2018-03-11T02:16:47.659Z,11.47
2018-03-11T02:16:48.298Z,11.41
2018-03-11T02:17:42.767Z,11.38
2018-03-11T02:17:43.339Z,11.46
2018-03-11T02:17:43.936Z,11.47
2018-03-11T02:17:44.535Z,11.46
2018-03-11T02:17:45.134Z,11.47
2018-03-11T02:17:45.734Z,11.43
2018-03-11T02:17:46.335Z,11.46
2018-03-11T02:17:46.934Z,11.43
2018-03-11T02:18:40.422Z,11.47
2018-03-11T02:18:40.989Z,11.54
2018-03-11T02:18:41.588Z,11.46
2018-03-11T02:18:42.187Z,11.47
2018-03-11T02:18:42.788Z,11.49
2018-03-11T02:18:43.387Z,11.47
2018-03-11T02:18:43.987Z,11.50
2018-03-11T02:18:44.587Z,11.52
2018-03-11T02:19:39.093Z,11.50
2018-03-11T02:19:39.667Z,11.53
2018-03-11T02:19:40.292Z,11.52
2018-03-11T02:19:40.864Z,11.52
2018-03-11T02:19:41.467Z,11.50
2018-03-11T02:19:42.080Z,11.54
2018-03-11T02:19:42.666Z,11.54
2018-03-11T02:19:43.263Z,11.53
2018-03-11T02:20:37.768Z,11.54
2018-03-11T02:20:38.341Z,11.49
2018-03-11T02:20:38.938Z,11.53
2018-03-11T02:20:39.538Z,11.57
2018-03-11T02:20:40.139Z,11.56
2018-03-11T02:20:40.745Z,11.56
2018-03-11T02:20:41.341Z,11.56
2018-03-11T02:20:41.941Z,11.50
2018-03-11T02:21:36.448Z,11.53
2018-03-11T02:21:37.018Z,11.50
2018-03-11T02:21:37.614Z,11.50
2018-03-11T02:21:38.215Z,11.61
2018-03-11T02:21:38.814Z,11.61
2018-03-11T02:21:39.415Z,11.62
2018-03-11T02:21:40.015Z,11.57
2018-03-11T02:21:40.614Z,11.61
2018-03-11T02:22:35.120Z,11.57
2018-03-11T02:22:35.691Z,11.65
2018-03-11T02:22:36.295Z,11.61
2018-03-11T02:22:36.890Z,11.67
2018-03-11T02:22:37.490Z,11.67
2018-03-11T02:22:38.090Z,11.62
2018-03-11T02:22:38.689Z,11.62
2018-03-11T02:22:39.290Z,11.70
2018-03-11T02:23:33.796Z,11.56
2018-03-11T02:23:34.366Z,11.68
2018-03-11T02:23:34.967Z,11.65
2018-03-11T02:23:35.581Z,11.68
2018-03-11T02:23:36.165Z,11.65
2018-03-11T02:23:36.766Z,11.71
2018-03-11T02:23:37.370Z,11.74
2018-03-11T02:23:37.976Z,11.67
2018-03-11T02:24:32.481Z,11.70
2018-03-11T02:24:33.070Z,11.70
2018-03-11T02:24:33.656Z,11.70
2018-03-11T02:24:34.240Z,11.64
2018-03-11T02:24:34.841Z,11.62
2018-03-11T02:24:35.440Z,11.71
2018-03-11T02:24:36.039Z,11.68
2018-03-11T02:24:36.640Z,11.67
2018-03-11T02:25:30.126Z,11.65
2018-03-11T02:25:30.700Z,11.75
2018-03-11T02:25:31.294Z,11.70
2018-03-11T02:25:31.894Z,11.72
2018-03-11T02:25:32.493Z,11.67
2018-03-11T02:25:33.095Z,11.71
2018-03-11T02:25:33.694Z,11.71
2018-03-11T02:25:34.294Z,11.75
2018-03-11T03:07:59.746Z,11.38
2018-03-11T03:08:00.252Z,11.29
2018-03-11T03:08:00.848Z,11.38
2018-03-11T03:08:01.448Z,11.39
2018-03-11T03:08:02.049Z,11.38
2018-03-11T03:08:02.650Z,11.39
2018-03-11T03:08:03.248Z,11.32
2018-03-11T03:08:03.848Z,11.36
2018-03-11T03:08:57.340Z,11.27
2018-03-11T03:08:57.908Z,11.29
2018-03-11T03:08:58.505Z,11.39
2018-03-11T03:08:59.106Z,11.34
2018-03-11T03:08:59.704Z,11.38
2018-03-11T03:09:00.330Z,11.39
2018-03-11T03:09:00.902Z,11.39
2018-03-11T03:09:01.503Z,11.29
2018-03-11T03:09:54.985Z,11.29
2018-03-11T03:09:55.560Z,11.34
2018-03-11T03:09:56.156Z,11.38
2018-03-11T03:09:56.772Z,11.25
2018-03-11T03:09:57.362Z,11.39
2018-03-11T03:09:57.963Z,11.29
2018-03-11T03:09:58.554Z,11.41
2018-03-11T03:09:59.155Z,11.39
2018-03-11T03:10:52.638Z,11.32
2018-03-11T03:10:53.211Z,11.38
2018-03-11T03:10:53.809Z,11.35
2018-03-11T03:10:54.417Z,11.29
2018-03-11T03:10:55.020Z,11.36
2018-03-11T03:10:55.611Z,11.41
2018-03-11T03:10:56.208Z,11.28
2018-03-11T03:10:56.808Z,11.41
2018-03-11T03:11:51.316Z,11.34
2018-03-11T03:11:51.885Z,11.38
2018-03-11T03:11:52.483Z,11.29
2018-03-11T03:11:53.084Z,11.35
2018-03-11T03:11:53.683Z,11.34
2018-03-11T03:11:54.283Z,11.36
2018-03-11T03:11:54.883Z,11.35
2018-03-11T03:11:55.483Z,11.36
2018-03-11T03:12:49.068Z,11.38
2018-03-11T03:12:49.639Z,11.35
2018-03-11T03:12:50.239Z,11.38
2018-03-11T03:12:50.839Z,11.35
2018-03-11T03:12:51.440Z,11.39
2018-03-11T03:12:52.038Z,11.32
2018-03-11T03:12:52.637Z,11.38
2018-03-11T03:12:53.237Z,11.36
2018-03-11T03:13:46.718Z,11.36
2018-03-11T03:13:47.297Z,11.32
2018-03-11T03:13:47.890Z,11.41
2018-03-11T03:13:48.490Z,11.27
2018-03-11T03:13:49.093Z,11.46
2018-03-11T03:13:49.700Z,11.36
2018-03-11T03:13:50.294Z,11.36
2018-03-11T03:13:50.889Z,11.32
2018-03-11T03:14:44.370Z,11.35
2018-03-11T03:14:44.960Z,11.43
2018-03-11T03:14:45.550Z,11.39
2018-03-11T03:14:46.142Z,11.32
2018-03-11T03:14:46.741Z,11.36
2018-03-11T03:14:47.345Z,11.36
2018-03-11T03:14:47.943Z,11.36
2018-03-11T03:14:48.543Z,11.35
2018-03-11T03:15:42.043Z,11.49
2018-03-11T03:15:42.593Z,11.39
2018-03-11T03:15:43.192Z,11.39
2018-03-11T03:15:43.793Z,11.39
2018-03-11T03:15:44.393Z,11.43
2018-03-11T03:15:44.991Z,11.34
2018-03-11T03:15:45.593Z,11.47
2018-03-11T03:15:46.193Z,11.43
2018-03-11T03:16:40.697Z,11.43
2018-03-11T03:16:41.270Z,11.38
2018-03-11T03:16:41.868Z,11.43
2018-03-11T03:16:42.469Z,11.41
2018-03-11T03:16:43.069Z,11.44
2018-03-11T03:16:43.669Z,11.44
2018-03-11T03:16:44.269Z,11.41
2018-03-11T03:16:44.866Z,11.39
2018-03-11T03:17:39.373Z,11.44
2018-03-11T03:17:39.947Z,11.43
2018-03-11T03:17:40.545Z,11.41
2018-03-11T03:17:41.147Z,11.46
2018-03-11T03:17:41.744Z,11.46
2018-03-11T03:17:42.343Z,11.50
2018-03-11T03:17:42.944Z,11.38
2018-03-11T03:17:43.544Z,11.47
2018-03-11T03:18:37.128Z,11.38
2018-03-11T03:18:37.702Z,11.46
2018-03-11T03:18:38.299Z,11.50
2018-03-11T03:18:38.899Z,11.44
2018-03-11T03:18:39.524Z,11.43
2018-03-11T03:18:40.111Z,11.47
2018-03-11T03:18:40.698Z,11.46
2018-03-11T03:18:41.298Z,11.50
2018-03-11T03:19:34.779Z,11.41
2018-03-11T03:19:35.359Z,11.47
2018-03-11T03:19:35.950Z,11.47
2018-03-11T03:19:36.551Z,11.47
2018-03-11T03:19:37.149Z,11.36
2018-03-11T03:19:37.752Z,11.49
2018-03-11T03:19:38.349Z,11.50
2018-03-11T03:19:38.950Z,11.38
2018-03-11T03:20:32.430Z,11.46
2018-03-11T03:20:33.008Z,11.46
2018-03-11T03:20:33.644Z,11.49
2018-03-11T03:20:34.220Z,11.46
2018-03-11T03:20:34.803Z,11.47
2018-03-11T03:20:35.400Z,11.49
2018-03-11T03:20:36.002Z,11.46
2018-03-11T03:20:36.601Z,11.47
2018-03-11T03:21:30.172Z,11.47
2018-03-11T03:21:30.675Z,11.47
2018-03-11T03:21:31.276Z,11.54
2018-03-11T03:21:31.875Z,11.44
2018-03-11T03:21:32.480Z,11.47
2018-03-11T03:21:33.076Z,11.46
2018-03-11T03:21:33.676Z,11.49
2018-03-11T03:21:34.278Z,11.50
2018-03-11T03:22:29.677Z,11.50
2018-03-11T03:22:30.270Z,11.47
2018-03-11T03:22:30.855Z,11.57
2018-03-11T03:22:31.477Z,11.52
2018-03-11T03:22:32.048Z,11.47
2018-03-11T03:22:32.649Z,11.50
2018-03-11T03:22:33.248Z,11.52
2018-03-11T03:22:33.852Z,11.54
2018-03-11T03:23:27.332Z,11.52
2018-03-11T03:23:27.904Z,11.53
2018-03-11T03:23:28.503Z,11.53
2018-03-11T03:23:29.103Z,11.50
2018-03-11T03:23:29.707Z,11.56
2018-03-11T03:23:30.304Z,11.50
2018-03-11T03:23:30.902Z,11.50
2018-03-11T03:23:31.502Z,11.50
2018-03-11T03:24:26.040Z,11.52
2018-03-11T03:24:26.539Z,11.53
2018-03-11T03:24:27.138Z,11.50
2018-03-11T03:24:27.738Z,11.47
2018-03-11T03:24:28.338Z,11.57
2018-03-11T03:24:28.938Z,11.52
2018-03-11T03:24:29.538Z,11.65
2018-03-11T03:25:23.556Z,11.54
2018-03-11T03:25:24.130Z,11.50
2018-03-11T03:25:24.727Z,11.57
2018-03-11T03:25:25.334Z,11.50
2018-03-11T03:25:25.926Z,11.49
2018-03-11T03:25:26.532Z,11.50
2018-03-11T03:25:27.125Z,11.54
2018-03-11T03:25:27.726Z,11.50
2018-03-11T03:26:21.208Z,11.52
2018-03-11T03:26:21.780Z,11.67
2018-03-11T03:26:22.379Z,11.57
2018-03-11T03:26:22.979Z,11.52
2018-03-11T03:26:23.579Z,11.59
2018-03-11T03:26:24.178Z,11.47
2018-03-11T03:26:24.780Z,11.67
2018-03-11T03:26:25.379Z,11.50
2018-03-11T03:27:18.860Z,11.52
2018-03-11T03:27:19.432Z,11.64
2018-03-11T03:27:20.034Z,11.62
2018-03-11T03:27:20.632Z,11.52
2018-03-11T03:27:21.231Z,11.64
2018-03-11T03:27:21.831Z,11.53
2018-03-11T03:27:22.431Z,11.62
2018-03-11T03:27:23.032Z,11.50
2018-03-11T03:28:20.096Z,11.54
2018-03-11T03:28:20.673Z,11.52
2018-03-11T03:28:21.267Z,11.53
2018-03-11T03:28:21.865Z,11.52
2018-03-11T03:28:22.465Z,11.56
2018-03-11T03:28:23.066Z,11.64
2018-03-11T03:29:18.051Z,11.57
2018-03-11T03:29:18.645Z,11.56
2018-03-11T03:29:19.225Z,11.53
2018-03-11T03:29:19.824Z,11.57
2018-03-11T03:29:20.423Z,11.53
2018-03-11T03:29:21.026Z,11.67
2018-03-11T03:29:21.622Z,11.47
2018-03-11T03:29:22.222Z,11.61
2018-03-11T03:30:16.730Z,11.52
2018-03-11T03:30:17.304Z,11.65
2018-03-11T03:30:17.901Z,11.62
2018-03-11T03:30:18.502Z,11.52
2018-03-11T03:30:19.109Z,11.62
2018-03-11T03:30:19.705Z,11.65
2018-03-11T03:30:20.313Z,11.59
2018-03-11T03:30:20.902Z,11.64
2018-03-11T03:31:14.389Z,11.65
2018-03-11T03:31:14.967Z,11.64
2018-03-11T03:31:15.554Z,11.65
2018-03-11T03:31:16.154Z,11.65
2018-03-11T03:31:16.755Z,11.59
2018-03-11T03:31:17.355Z,11.62
2018-03-11T03:31:17.954Z,11.64
2018-03-11T03:31:18.553Z,11.56
2018-03-11T03:32:12.136Z,11.67
2018-03-11T03:32:12.711Z,11.62
2018-03-11T03:32:13.315Z,11.64
2018-03-11T03:32:13.920Z,11.57
2018-03-11T03:32:14.561Z,11.56
2018-03-11T03:32:15.106Z,11.65
2018-03-11T03:32:15.706Z,11.65
2018-03-11T03:32:16.305Z,11.64
2018-03-11T03:33:10.811Z,11.57
2018-03-11T03:33:11.384Z,11.59
2018-03-11T03:33:11.983Z,11.61
2018-03-11T03:33:12.586Z,11.67
2018-03-11T03:33:13.185Z,11.64
2018-03-11T03:33:13.782Z,11.64
2018-03-11T03:33:14.381Z,11.70
2018-03-11T03:33:14.981Z,11.64
2018-03-11T03:34:08.462Z,11.53
2018-03-11T03:34:09.038Z,11.56
2018-03-11T03:34:09.635Z,11.62
2018-03-11T03:34:10.235Z,11.64
2018-03-11T03:34:10.835Z,11.64
2018-03-11T03:34:11.434Z,11.64
2018-03-11T03:34:12.036Z,11.57
2018-03-11T03:34:12.634Z,11.64
2018-03-11T03:35:07.140Z,11.59
2018-03-11T03:35:07.713Z,11.59
2018-03-11T03:35:08.309Z,11.62
2018-03-11T03:35:08.911Z,11.62
2018-03-11T03:35:09.509Z,11.65
2018-03-11T03:35:10.108Z,11.62
2018-03-11T03:35:10.708Z,11.61
2018-03-11T03:35:11.309Z,11.67
2018-03-11T03:36:04.790Z,11.64
2018-03-11T03:36:05.363Z,11.61
2018-03-11T03:36:05.963Z,11.53
2018-03-11T03:36:06.562Z,11.64
2018-03-11T03:36:07.164Z,11.64
2018-03-11T03:36:07.762Z,11.64
2018-03-11T03:36:08.363Z,11.64
2018-03-11T03:36:08.960Z,11.57
2018-03-11T03:37:03.974Z,11.64
2018-03-11T03:37:04.551Z,11.56
2018-03-11T03:37:05.147Z,11.62
2018-03-11T03:37:05.748Z,11.61
2018-03-11T03:37:06.353Z,11.59
2018-03-11T03:37:06.947Z,11.59
2018-03-11T03:37:07.548Z,11.64
2018-03-11T03:38:02.039Z,11.59
2018-03-11T03:38:02.612Z,11.67
2018-03-11T03:38:03.209Z,11.65
2018-03-11T03:38:03.809Z,11.68
2018-03-11T03:38:04.408Z,11.59
2018-03-11T03:38:05.008Z,11.65
2018-03-11T03:38:05.609Z,11.64
2018-03-11T03:38:06.209Z,11.70
2018-03-11T03:39:00.714Z,11.57
2018-03-11T03:39:01.288Z,11.62
2018-03-11T03:39:01.889Z,11.67
2018-03-11T03:39:02.489Z,11.59
2018-03-11T03:39:03.088Z,11.67
2018-03-11T03:39:03.685Z,11.70
2018-03-11T03:39:04.284Z,11.64
2018-03-11T03:39:04.888Z,11.65
2018-03-11T03:39:59.391Z,11.68
2018-03-11T03:39:59.961Z,11.65
2018-03-11T03:40:00.560Z,11.64
2018-03-11T03:40:01.160Z,11.65
2018-03-11T03:40:01.764Z,11.65
2018-03-11T03:40:02.365Z,11.65
2018-03-11T03:40:02.965Z,11.65
2018-03-11T03:40:03.565Z,11.70
2018-03-11T03:40:57.043Z,11.64
2018-03-11T03:40:57.616Z,11.67
2018-03-11T03:40:58.229Z,11.64
2018-03-11T03:40:58.816Z,11.67
2018-03-11T03:40:59.414Z,11.72
2018-03-11T03:41:00.015Z,11.71
2018-03-11T03:41:00.615Z,11.74
2018-03-11T03:41:01.213Z,11.67
2018-03-11T03:41:55.716Z,11.64
2018-03-11T03:41:56.288Z,11.71
2018-03-11T03:41:56.887Z,11.67
2018-03-11T03:41:57.489Z,11.64
2018-03-11T03:41:58.089Z,11.67
2018-03-11T03:41:58.706Z,11.71
2018-03-11T03:41:59.305Z,11.64
2018-03-11T03:41:59.888Z,11.71
2018-03-11T03:42:53.371Z,11.67
2018-03-11T03:42:53.942Z,11.68
2018-03-11T03:42:54.541Z,11.65
2018-03-11T03:42:55.141Z,11.70
2018-03-11T03:42:55.741Z,11.65
2018-03-11T03:42:56.340Z,11.71
2018-03-11T03:42:56.941Z,11.65
2018-03-11T03:42:57.543Z,11.65
2018-03-11T03:43:51.021Z,11.65
2018-03-11T03:43:51.598Z,11.67
2018-03-11T03:43:52.193Z,11.67
2018-03-11T03:43:52.792Z,11.68
2018-03-11T03:43:53.393Z,11.70
2018-03-11T03:43:53.994Z,11.70
2018-03-11T03:43:54.593Z,11.70
2018-03-11T03:43:55.193Z,11.70
2018-03-11T03:44:48.672Z,11.71
2018-03-11T03:44:49.246Z,11.71
2018-03-11T03:44:49.844Z,11.74
2018-03-11T03:44:50.446Z,11.67
2018-03-11T03:44:51.046Z,11.74
2018-03-11T03:44:51.645Z,11.72
2018-03-11T03:44:52.245Z,11.71
2018-03-11T03:44:52.846Z,11.70
2018-03-11T03:45:47.348Z,11.72
2018-03-11T03:45:47.919Z,11.72
2018-03-11T03:45:48.520Z,11.68
2018-03-11T03:45:49.120Z,11.74
2018-03-11T03:45:49.719Z,11.71
2018-03-11T03:45:50.319Z,11.72
2018-03-11T03:45:50.920Z,11.71
2018-03-11T03:45:51.519Z,11.71
2018-03-11T03:46:45.097Z,11.72
2018-03-11T03:46:45.599Z,11.72
2018-03-11T03:46:46.196Z,11.74
2018-03-11T03:46:46.796Z,11.71
2018-03-11T03:46:47.397Z,11.75
2018-03-11T03:46:47.996Z,11.71
2018-03-11T03:46:48.595Z,11.72
2018-03-11T03:46:49.197Z,11.75
2018-03-11T03:47:42.753Z,11.68
2018-03-11T03:47:43.326Z,11.74
2018-03-11T03:47:43.925Z,11.71
2018-03-11T03:47:44.543Z,11.74
2018-03-11T03:47:45.132Z,11.71
2018-03-11T03:47:45.729Z,11.75
2018-03-11T03:47:46.325Z,11.75
2018-03-11T03:47:46.925Z,11.75
2018-03-11T03:48:40.496Z,11.72
2018-03-11T03:48:41.000Z,11.70
2018-03-11T03:48:41.600Z,11.70
2018-03-11T03:48:42.198Z,11.71
2018-03-11T03:48:42.797Z,11.74
2018-03-11T03:48:43.398Z,11.72
2018-03-11T03:48:43.997Z,11.74
2018-03-11T03:48:44.598Z,11.72
2018-03-11T03:49:39.082Z,11.77
2018-03-11T03:49:39.654Z,11.68
2018-03-11T03:49:40.253Z,11.71
2018-03-11T03:49:40.853Z,11.72
2018-03-11T03:49:41.451Z,11.72
2018-03-11T03:49:42.064Z,11.74
2018-03-11T03:49:42.649Z,11.74
2018-03-11T03:49:43.249Z,11.78
2018-03-11T03:50:36.732Z,11.71
2018-03-11T03:50:37.306Z,11.70
2018-03-11T03:50:37.908Z,11.74
2018-03-11T03:50:38.507Z,11.67
2018-03-11T03:50:39.106Z,11.72
2018-03-11T03:50:39.706Z,11.72
2018-03-11T03:50:40.304Z,11.72
2018-03-11T03:50:40.905Z,11.71
2018-03-11T03:51:35.408Z,11.71
2018-03-11T03:51:35.985Z,11.74
2018-03-11T03:51:36.578Z,11.71
2018-03-11T03:51:37.182Z,11.68
2018-03-11T03:51:37.778Z,11.70
2018-03-11T03:51:38.377Z,11.71
2018-03-11T03:51:38.994Z,11.71
2018-03-11T03:51:39.639Z,11.74
2018-03-11T03:52:33.060Z,11.71
2018-03-11T03:52:33.636Z,11.72
2018-03-11T03:52:34.262Z,11.74
2018-03-11T03:52:34.831Z,11.72
2018-03-11T03:52:35.434Z,11.70
2018-03-11T03:52:36.047Z,11.72
2018-03-11T03:52:36.630Z,11.74
2018-03-11T03:52:37.229Z,11.72
2018-03-11T03:53:30.712Z,11.72
2018-03-11T03:53:31.289Z,11.72
2018-03-11T03:53:31.886Z,11.71
2018-03-11T03:53:32.484Z,11.77
2018-03-11T03:53:33.090Z,11.72
2018-03-11T03:53:33.687Z,11.72
2018-03-11T03:53:34.283Z,11.77
2018-03-11T03:53:34.884Z,11.72
2018-03-11T03:54:29.387Z,11.65
2018-03-11T03:54:29.985Z,11.64
2018-03-11T03:54:30.558Z,11.72
2018-03-11T03:54:31.159Z,11.65
2018-03-11T03:54:31.760Z,11.68
2018-03-11T03:54:32.359Z,11.71
2018-03-11T03:54:32.958Z,11.74
2018-03-11T03:54:33.558Z,11.71
2018-03-11T03:55:28.062Z,11.67
2018-03-11T03:55:28.635Z,11.70
2018-03-11T03:55:29.234Z,11.68
2018-03-11T03:55:29.834Z,11.68
2018-03-11T03:55:30.434Z,11.72
2018-03-11T03:55:31.033Z,11.70
2018-03-11T04:12:38.004Z,11.25
2018-03-11T04:12:38.576Z,11.28
2018-03-11T04:12:39.176Z,11.24
2018-03-11T04:12:39.778Z,11.21
2018-03-11T04:12:40.382Z,11.28
2018-03-11T04:12:40.976Z,11.24
2018-03-11T04:12:41.576Z,11.24
2018-03-11T04:12:42.180Z,11.24
2018-03-11T04:13:36.681Z,11.07
2018-03-11T04:13:37.254Z,11.16
2018-03-11T04:13:37.853Z,11.16
2018-03-11T04:13:38.452Z,11.17
2018-03-11T04:13:39.052Z,11.14
2018-03-11T04:13:39.653Z,11.17
2018-03-11T04:13:40.256Z,11.17
2018-03-11T04:13:40.851Z,11.16
2018-03-11T04:14:35.364Z,11.14
2018-03-11T04:14:35.928Z,11.14
2018-03-11T04:14:36.528Z,11.10
2018-03-11T04:14:37.128Z,11.13
2018-03-11T04:14:37.728Z,11.14
2018-03-11T04:14:38.327Z,11.14
2018-03-11T04:14:38.928Z,11.11